Time;durP1;ratioP1;P1;durP2;ratioP2;P2;SDS_P1;SDS_P2;PMS_P1;PMS_P2;Temp;Humidity;BMP_temperature;BMP_pressure;BME280_temperature;BME280_humidity;BME280_pressure;Samples;Min_cycle;Max_cycle;Signal;HPM_P1;HPM_P2
2022/03/24 00:00:20;;;;;;;6.10;5.55;;;9.70;78.10;;;;;;5035190;28;20434;-77
2022/03/24 00:02:47;;;;;;;6.00;5.50;;;9.60;77.20;;;;;;5036306;28;20206;-78
2022/03/24 00:05:14;;;;;;;5.60;5.10;;;9.60;77.70;;;;;;5034832;28;20227;-77
2022/03/24 00:07:41;;;;;;;5.90;5.40;;;9.60;77.50;;;;;;5040846;28;20195;-77
2022/03/24 00:10:10;;;;;;;6.30;5.70;;;9.60;77.60;;;;;;5039440;28;20760;-78
2022/03/24 00:12:39;;;;;;;5.20;4.70;;;9.50;77.50;;;;;;5037799;28;20196;-76
2022/03/24 00:15:08;;;;;;;5.90;5.35;;;9.50;77.60;;;;;;5035713;28;20215;-76
2022/03/24 00:17:35;;;;;;;6.25;5.65;;;9.40;77.70;;;;;;5035041;28;20217;-77
2022/03/24 00:20:02;;;;;;;5.90;5.40;;;9.40;78.10;;;;;;5037293;28;20521;-75
2022/03/24 00:22:29;;;;;;;5.53;5.03;;;9.30;78.40;;;;;;5038291;28;20198;-76
2022/03/24 00:24:57;;;;;;;5.53;5.03;;;9.10;78.40;;;;;;5036688;28;20195;-76
2022/03/24 00:27:24;;;;;;;5.43;4.93;;;9.00;79.00;;;;;;5042560;28;20618;-76
2022/03/24 00:29:52;;;;;;;5.43;4.93;;;9.00;78.80;;;;;;5037773;28;20227;-76
2022/03/24 00:32:20;;;;;;;5.65;5.15;;;9.00;78.70;;;;;;5039688;28;20188;-77
2022/03/24 00:34:46;;;;;;;5.80;5.30;;;9.10;78.30;;;;;;5040236;28;20195;-78
2022/03/24 00:37:13;;;;;;;6.13;5.63;;;9.00;78.10;;;;;;5041418;28;20191;-77
2022/03/24 00:39:41;;;;;;;5.93;5.43;;;9.10;78.30;;;;;;5041341;28;20579;-78
2022/03/24 00:42:11;;;;;;;5.53;5.03;;;9.10;78.70;;;;;;5041476;28;20222;-78
2022/03/24 00:44:40;;;;;;;4.93;4.47;;;9.10;78.10;;;;;;5047020;28;20200;-75
2022/03/24 00:47:10;;;;;;;5.72;5.22;;;9.00;77.70;;;;;;5040918;28;20218;-78
2022/03/24 00:49:37;;;;;;;5.38;4.93;;;9.00;77.40;;;;;;5044331;28;20298;-78
2022/03/24 00:52:05;;;;;;;5.10;4.70;;;9.10;77.40;;;;;;5043136;28;20230;-78
2022/03/24 00:54:32;;;;;;;6.40;4.88;;;9.00;77.30;;;;;;5043140;28;20701;-76
2022/03/24 00:56:59;;;;;;;4.97;4.57;;;9.00;77.30;;;;;;5040852;28;20710;-77
2022/03/24 00:59:27;;;;;;;5.78;5.28;;;9.00;77.70;;;;;;5042987;28;20261;-77
2022/03/24 01:01:55;;;;;;;5.90;5.30;;;9.00;78.10;;;;;;5039698;28;20218;-78
2022/03/24 01:04:23;;;;;;;5.05;4.65;;;8.90;78.30;;;;;;5040478;28;20219;-77
2022/03/24 01:06:50;;;;;;;5.03;4.63;;;8.90;78.70;;;;;;5039449;28;20760;-76
2022/03/24 01:09:17;;;;;;;4.88;4.47;;;8.80;78.70;;;;;;5044341;28;20553;-77
2022/03/24 01:11:45;;;;;;;5.72;5.22;;;8.80;78.90;;;;;;5040214;28;20226;-77
2022/03/24 01:14:16;;;;;;;4.95;4.53;;;8.70;78.70;;;;;;5042442;28;20203;-76
2022/03/24 01:16:44;;;;;;;5.38;4.97;;;8.70;78.90;;;;;;5040351;28;20212;-76
2022/03/24 01:19:12;;;;;;;5.63;5.13;;;8.70;79.10;;;;;;5041115;28;20205;-77
2022/03/24 01:21:41;;;;;;;4.68;4.28;;;8.60;78.70;;;;;;5038419;28;20225;-77
2022/03/24 01:24:08;;;;;;;4.40;4.00;;;8.60;78.30;;;;;;5038477;28;20208;-76
2022/03/24 01:26:36;;;;;;;4.65;4.25;;;8.70;78.90;;;;;;5041079;28;20227;-79
2022/03/24 01:29:03;;;;;;;4.57;4.18;;;8.60;79.00;;;;;;5040597;28;20503;-77
2022/03/24 01:31:31;;;;;;;5.50;5.05;;;8.60;78.90;;;;;;5037173;28;20287;-77
2022/03/24 01:33:58;;;;;;;5.18;4.60;;;8.60;79.00;;;;;;5041451;28;20203;-77
2022/03/24 01:36:25;;;;;;;5.13;4.63;;;8.60;79.30;;;;;;5045028;28;20214;-76
2022/03/24 01:38:54;;;;;;;5.30;4.80;;;8.50;79.50;;;;;;5045512;28;20280;-77
2022/03/24 01:41:22;;;;;;;5.22;4.82;;;8.50;79.50;;;;;;5041895;28;20704;-78
2022/03/24 01:43:49;;;;;;;4.72;4.32;;;8.50;79.60;;;;;;5044429;28;20195;-77
2022/03/24 01:46:22;;;;;;;4.75;4.35;;;8.50;80.00;;;;;;5039047;28;20575;-77
2022/03/24 01:48:49;;;;;;;5.00;4.60;;;8.50;79.10;;;;;;5045017;28;20624;-78
2022/03/24 01:51:16;;;;;;;4.90;4.43;;;8.50;79.40;;;;;;5044949;28;20230;-76
2022/03/24 01:53:43;;;;;;;4.22;3.90;;;8.50;79.60;;;;;;5040167;28;20249;-77
2022/03/24 01:56:12;;;;;;;4.63;4.22;;;8.50;79.90;;;;;;5042246;28;20219;-77
2022/03/24 01:58:42;;;;;;;4.97;4.57;;;8.40;79.90;;;;;;5041918;28;20592;-77
2022/03/24 02:01:27;;;;;;;4.63;4.22;;;8.40;79.60;;;;;;5041863;28;20276;-77
2022/03/24 02:03:55;;;;;;;4.72;4.32;;;8.40;79.80;;;;;;5044337;28;20217;-76
2022/03/24 02:06:22;;;;;;;4.65;4.25;;;8.30;80.40;;;;;;5039159;28;20230;-77
2022/03/24 02:08:49;;;;;;;4.57;4.18;;;8.30;80.20;;;;;;5039447;28;20463;-76
2022/03/24 02:11:20;;;;;;;4.97;4.32;;;8.20;80.40;;;;;;5039580;28;20219;-77
2022/03/24 02:13:47;;;;;;;4.72;4.22;;;8.20;80.30;;;;;;5039981;28;20226;-76
2022/03/24 02:16:15;;;;;;;4.55;4.15;;;8.10;80.30;;;;;;5043033;28;20215;-78
2022/03/24 02:18:45;;;;;;;4.35;3.92;;;8.10;80.50;;;;;;5049358;28;20706;-78
2022/03/24 02:21:16;;;;;;;5.05;3.70;;;8.10;80.70;;;;;;5043703;28;20220;-77
2022/03/24 02:23:45;;;;;;;3.95;3.55;;;8.00;80.50;;;;;;5042045;28;20254;-78
2022/03/24 02:26:13;;;;;;;4.38;3.97;;;8.00;80.30;;;;;;5040821;28;20223;-77
2022/03/24 02:28:42;;;;;;;4.72;3.60;;;8.00;80.40;;;;;;5037697;28;20245;-76
2022/03/24 02:31:10;;;;;;;4.35;4.05;;;8.00;80.90;;;;;;5042241;28;20305;-76
2022/03/24 02:33:37;;;;;;;4.32;3.92;;;7.90;80.90;;;;;;5037405;28;20191;-75
2022/03/24 02:36:06;;;;;;;3.90;3.50;;;7.90;81.20;;;;;;5035717;28;20257;-77
2022/03/24 02:38:34;;;;;;;4.03;3.72;;;7.90;81.20;;;;;;5034331;28;20194;-76
2022/03/24 02:41:02;;;;;;;4.45;3.60;;;7.90;81.30;;;;;;5037966;28;20231;-77
2022/03/24 02:43:29;;;;;;;4.18;3.78;;;7.90;81.80;;;;;;5038933;28;20198;-77
2022/03/24 02:45:57;;;;;;;4.13;3.83;;;7.90;81.90;;;;;;5038789;28;20215;-76
2022/03/24 02:48:24;;;;;;;4.00;3.70;;;7.90;81.90;;;;;;5040192;28;20218;-76
2022/03/24 02:50:51;;;;;;;3.05;2.85;;;7.90;82.20;;;;;;5037334;28;20273;-77
2022/03/24 02:53:19;;;;;;;4.13;3.72;;;7.90;82.20;;;;;;5037934;28;20202;-76
2022/03/24 02:55:46;;;;;;;4.07;3.78;;;7.90;82.30;;;;;;5040594;28;20227;-77
2022/03/24 02:58:14;;;;;;;3.80;3.50;;;7.90;82.40;;;;;;5036756;28;20207;-76
2022/03/24 03:00:43;;;;;;;4.43;4.05;;;7.80;82.20;;;;;;5037399;28;20729;-76
2022/03/24 03:03:11;;;;;;;3.78;3.30;;;7.80;81.40;;;;;;5039863;28;20202;-75
2022/03/24 03:05:39;;;;;;;3.55;3.25;;;7.90;81.30;;;;;;5034601;28;20647;-76
2022/03/24 03:08:06;;;;;;;3.65;3.25;;;7.90;81.20;;;;;;5032026;28;20219;-75
2022/03/24 03:10:34;;;;;;;3.92;3.63;;;7.90;80.90;;;;;;5039657;28;20238;-77
2022/03/24 03:13:01;;;;;;;3.30;3.10;;;7.80;81.20;;;;;;5047595;28;20244;-78
2022/03/24 03:15:30;;;;;;;3.85;3.40;;;7.80;81.80;;;;;;5045356;28;20698;-77
2022/03/24 03:17:57;;;;;;;3.95;3.65;;;7.70;81.80;;;;;;5039926;28;20203;-78
2022/03/24 03:20:24;;;;;;;3.80;3.58;;;7.60;81.90;;;;;;5043774;28;20215;-78
2022/03/24 03:22:51;;;;;;;4.07;3.78;;;7.60;82.00;;;;;;5038374;28;20195;-79
2022/03/24 03:25:21;;;;;;;3.72;3.42;;;7.50;82.10;;;;;;5042118;28;20219;-78
2022/03/24 03:27:48;;;;;;;4.03;3.72;;;7.50;82.20;;;;;;5046278;28;20241;-78
2022/03/24 03:30:15;;;;;;;4.10;3.80;;;7.50;83.40;;;;;;5039109;28;20229;-78
2022/03/24 03:32:44;;;;;;;4.03;3.72;;;7.50;82.60;;;;;;5037311;28;20219;-78
2022/03/24 03:35:11;;;;;;;3.88;3.58;;;7.50;82.90;;;;;;5037820;28;20256;-78
2022/03/24 03:37:39;;;;;;;3.97;3.67;;;7.50;83.00;;;;;;5041986;28;21751;-78
2022/03/24 03:40:07;;;;;;;3.80;3.50;;;7.40;83.00;;;;;;5042965;28;20211;-78
2022/03/24 03:42:34;;;;;;;3.72;3.42;;;7.40;82.80;;;;;;5038351;28;20313;-77
2022/03/24 03:45:01;;;;;;;3.33;3.13;;;7.30;82.70;;;;;;5039426;28;20617;-77
2022/03/24 03:47:28;;;;;;;3.75;3.45;;;7.30;82.90;;;;;;5045524;28;20223;-79
2022/03/24 03:49:57;;;;;;;3.78;3.38;;;7.20;83.40;;;;;;5039943;28;20247;-78
2022/03/24 03:52:24;;;;;;;3.83;3.42;;;7.20;83.40;;;;;;5041858;28;20219;-78
2022/03/24 03:54:52;;;;;;;3.10;2.90;;;7.30;83.30;;;;;;5040168;28;20714;-77
2022/03/24 03:57:19;;;;;;;3.72;3.42;;;7.30;83.60;;;;;;5039095;28;20211;-78
2022/03/24 03:59:46;;;;;;;3.50;3.20;;;7.20;83.90;;;;;;5038457;28;20287;-78
2022/03/24 04:02:14;;;;;;;3.65;3.35;;;7.20;83.90;;;;;;5036579;28;20587;-76
2022/03/24 04:04:41;;;;;;;3.42;3.13;;;7.20;83.70;;;;;;5042820;28;20211;-78
2022/03/24 04:07:09;;;;;;;4.22;3.83;;;7.20;83.70;;;;;;5042454;28;20214;-77
2022/03/24 04:09:36;;;;;;;3.50;3.20;;;7.20;83.70;;;;;;5045465;28;20425;-76
2022/03/24 04:12:04;;;;;;;3.40;3.10;;;7.10;83.40;;;;;;5039653;28;20218;-77
2022/03/24 04:14:32;;;;;;;3.63;3.33;;;7.10;84.40;;;;;;5040871;28;20257;-77
2022/03/24 04:16:59;;;;;;;4.10;3.08;;;7.10;83.70;;;;;;5039068;28;20214;-76
2022/03/24 04:19:26;;;;;;;4.18;3.45;;;7.10;83.90;;;;;;5041192;28;20249;-76
2022/03/24 04:21:53;;;;;;;3.42;3.13;;;7.10;83.70;;;;;;5038780;28;20221;-75
2022/03/24 04:24:21;;;;;;;4.53;3.25;;;7.10;83.80;;;;;;5037213;28;20196;-75
2022/03/24 04:26:49;;;;;;;3.60;3.30;;;7.10;84.10;;;;;;5038581;28;20640;-76
2022/03/24 04:29:16;;;;;;;3.17;2.95;;;7.10;84.40;;;;;;5037531;28;20621;-78
2022/03/24 04:31:43;;;;;;;3.30;3.10;;;7.00;84.10;;;;;;5035330;28;20716;-75
2022/03/24 04:34:10;;;;;;;4.45;4.05;;;7.00;84.30;;;;;;5033337;28;20204;-76
2022/03/24 04:36:37;;;;;;;4.45;4.05;;;7.00;84.30;;;;;;5035313;28;20215;-76
2022/03/24 04:39:04;;;;;;;3.85;3.50;;;7.00;84.20;;;;;;5036606;28;20719;-76
2022/03/24 04:41:33;;;;;;;3.95;3.70;;;6.90;83.90;;;;;;5036416;28;20849;-77
2022/03/24 04:44:00;;;;;;;4.18;3.50;;;7.00;84.20;;;;;;5038537;28;20665;-77
2022/03/24 04:46:27;;;;;;;3.53;3.22;;;7.00;84.30;;;;;;5034043;28;21000;-75
2022/03/24 04:48:54;;;;;;;3.38;3.08;;;7.00;84.40;;;;;;5042349;28;20195;-78
2022/03/24 04:51:21;;;;;;;3.78;3.47;;;7.00;84.10;;;;;;5039370;28;20231;-75
2022/03/24 04:53:48;;;;;;;3.40;3.10;;;6.90;84.10;;;;;;5034035;28;20658;-76
2022/03/24 04:56:16;;;;;;;3.35;3.15;;;6.90;84.40;;;;;;5034214;28;20269;-76
2022/03/24 04:58:44;;;;;;;3.25;2.95;;;6.90;84.90;;;;;;5035327;28;20215;-76
2022/03/24 05:01:14;;;;;;;3.30;3.10;;;6.90;84.90;;;;;;5034778;28;20224;-76
2022/03/24 05:03:42;;;;;;;3.10;2.90;;;6.90;85.10;;;;;;5034437;28;20206;-75
2022/03/24 05:06:09;;;;;;;3.15;2.85;;;6.90;85.20;;;;;;5035783;28;20219;-77
2022/03/24 05:08:36;;;;;;;3.13;2.92;;;6.90;85.40;;;;;;5037523;28;20303;-77
2022/03/24 05:11:03;;;;;;;3.08;2.88;;;6.90;85.60;;;;;;5038877;28;20219;-76
2022/03/24 05:13:31;;;;;;;3.38;3.03;;;6.90;85.50;;;;;;5041646;28;20198;-76
2022/03/24 05:15:59;;;;;;;3.08;2.88;;;6.80;85.60;;;;;;5040521;28;20209;-76
2022/03/24 05:18:26;;;;;;;3.22;3.03;;;6.90;85.90;;;;;;5040930;28;20191;-77
2022/03/24 05:20:53;;;;;;;3.50;3.20;;;6.90;84.70;;;;;;5044021;28;20280;-76
2022/03/24 05:23:20;;;;;;;3.60;3.30;;;7.00;85.00;;;;;;5039922;28;20202;-77
2022/03/24 05:25:48;;;;;;;3.83;3.50;;;7.00;85.00;;;;;;5041810;28;20199;-76
2022/03/24 05:28:16;;;;;;;2.70;2.50;;;6.90;85.00;;;;;;5045432;28;20218;-77
2022/03/24 05:33:13;;;;;;;4.00;3.70;;;6.90;84.70;;;;;;5021061;28;20219;-75
2022/03/24 05:35:40;;;;;;;3.70;3.40;;;6.90;84.70;;;;;;5025908;28;20286;-73
2022/03/24 05:38:07;;;;;;;4.32;3.20;;;6.80;85.00;;;;;;5027536;28;20235;-75
2022/03/24 05:40:35;;;;;;;3.85;3.55;;;6.90;85.20;;;;;;5026830;28;20270;-75
2022/03/24 05:43:03;;;;;;;3.22;3.03;;;6.80;85.50;;;;;;5033803;28;20220;-75
2022/03/24 05:45:30;;;;;;;3.70;3.40;;;6.90;85.80;;;;;;5027802;28;20202;-74
2022/03/24 05:47:57;;;;;;;3.80;3.50;;;6.90;86.10;;;;;;5022057;28;20233;-75
2022/03/24 05:50:25;;;;;;;3.63;3.33;;;6.90;86.20;;;;;;5019896;28;20200;-74
2022/03/24 05:52:52;;;;;;;3.53;3.08;;;6.90;86.40;;;;;;5027310;28;20233;-74
2022/03/24 05:55:19;;;;;;;3.17;2.97;;;6.90;86.50;;;;;;5020411;28;20207;-73
2022/03/24 05:57:46;;;;;;;3.15;2.95;;;7.10;87.20;;;;;;5024115;28;20285;-75
2022/03/24 06:00:14;;;;;;;3.50;3.20;;;7.60;85.50;;;;;;5024144;28;20199;-75
2022/03/24 06:02:43;;;;;;;2.92;2.72;;;8.20;84.60;;;;;;5025509;28;20220;-74
2022/03/24 06:05:12;;;;;;;3.25;2.97;;;8.70;83.90;;;;;;5025527;28;20711;-74
2022/03/24 06:07:40;;;;;;;3.70;3.40;;;9.10;82.30;;;;;;5023955;28;20223;-74
2022/03/24 06:10:08;;;;;;;3.83;3.25;;;9.50;80.90;;;;;;5029305;28;20200;-77
2022/03/24 06:12:36;;;;;;;3.83;3.50;;;9.90;80.00;;;;;;5030509;28;20318;-77
2022/03/24 06:15:04;;;;;;;3.10;2.90;;;10.20;80.10;;;;;;5029619;28;20202;-79
2022/03/24 06:17:31;;;;;;;3.35;3.05;;;10.50;80.40;;;;;;5028018;28;20294;-76
2022/03/24 06:19:58;;;;;;;4.35;3.95;;;10.90;79.90;;;;;;5024197;28;20199;-75
2022/03/24 06:22:25;;;;;;;3.25;2.95;;;11.30;79.40;;;;;;5029253;28;20219;-78
2022/03/24 06:24:54;;;;;;;2.85;2.65;;;11.70;78.50;;;;;;5028727;28;20204;-76
2022/03/24 06:27:22;;;;;;;3.08;2.88;;;12.00;77.50;;;;;;5023421;28;20297;-77
2022/03/24 06:29:49;;;;;;;4.05;2.83;;;12.40;77.20;;;;;;5026833;28;20204;-75
2022/03/24 06:32:16;;;;;;;3.00;2.80;;;12.80;76.60;;;;;;5028030;28;20235;-77
2022/03/24 06:34:45;;;;;;;3.92;3.63;;;13.10;75.20;;;;;;5028669;28;20188;-78
2022/03/24 06:37:12;;;;;;;3.42;3.13;;;13.30;75.90;;;;;;5028708;28;20291;-76
2022/03/24 06:39:39;;;;;;;3.90;3.58;;;13.40;74.80;;;;;;5023397;28;20685;-78
2022/03/24 06:42:08;;;;;;;4.88;3.92;;;13.20;74.50;;;;;;5026908;28;20219;-76
2022/03/24 06:44:35;;;;;;;3.83;3.53;;;13.20;75.20;;;;;;5026633;28;20566;-77
2022/03/24 06:47:02;;;;;;;4.25;3.70;;;13.30;75.80;;;;;;5027496;28;20314;-76
2022/03/24 06:49:29;;;;;;;4.30;3.70;;;13.50;75.50;;;;;;5024242;28;20211;-75
2022/03/24 06:51:56;;;;;;;4.25;3.92;;;13.70;75.90;;;;;;5024390;28;20638;-77
2022/03/24 06:54:23;;;;;;;4.20;3.80;;;13.70;75.10;;;;;;5027384;28;20433;-79
2022/03/24 06:56:50;;;;;;;3.75;3.38;;;13.70;75.40;;;;;;5023251;28;20278;-77
2022/03/24 06:59:19;;;;;;;4.18;3.75;;;13.70;75.90;;;;;;5027636;28;20192;-80
2022/03/24 07:01:46;;;;;;;3.95;3.65;;;13.80;75.70;;;;;;5028324;28;20220;-77
2022/03/24 07:04:13;;;;;;;3.72;3.42;;;13.90;76.00;;;;;;5025164;28;20283;-76
2022/03/24 07:06:42;;;;;;;4.03;3.70;;;14.00;76.00;;;;;;5023324;28;20227;-75
2022/03/24 07:09:09;;;;;;;3.90;3.55;;;14.20;75.80;;;;;;5027956;28;20475;-75
2022/03/24 07:11:36;;;;;;;3.92;3.55;;;14.50;75.60;;;;;;5027900;28;20227;-75
2022/03/24 07:14:03;;;;;;;5.50;3.88;;;14.60;76.00;;;;;;5027586;28;20198;-75
2022/03/24 07:16:31;;;;;;;4.38;3.97;;;14.60;76.10;;;;;;5022726;28;20248;-73
2022/03/24 07:18:58;;;;;;;4.13;3.63;;;15.00;75.60;;;;;;5025637;28;20207;-75
2022/03/24 07:21:25;;;;;;;4.22;3.83;;;15.20;74.80;;;;;;5023634;28;20215;-76
2022/03/24 07:23:52;;;;;;;5.05;4.32;;;15.30;74.80;;;;;;5027863;28;20199;-75
2022/03/24 07:26:19;;;;;;;5.00;4.50;;;15.30;73.80;;;;;;5025463;28;20752;-75
2022/03/24 07:28:48;;;;;;;3.80;3.50;;;15.20;74.40;;;;;;5025057;28;20249;-74
2022/03/24 07:31:19;;;;;;;4.82;3.95;;;15.30;73.70;;;;;;5033058;28;20224;-76
2022/03/24 07:33:48;;;;;;;4.28;3.85;;;15.20;73.60;;;;;;5027557;28;20236;-75
2022/03/24 07:36:16;;;;;;;3.88;3.50;;;15.40;74.60;;;;;;5028765;28;20203;-77
2022/03/24 07:38:43;;;;;;;4.47;3.92;;;15.60;74.00;;;;;;5027287;28;20223;-75
2022/03/24 07:41:10;;;;;;;4.20;3.80;;;15.60;73.60;;;;;;5026319;28;20771;-75
2022/03/24 07:43:37;;;;;;;4.20;3.50;;;15.50;73.80;;;;;;5025062;28;20270;-77
2022/03/24 07:46:04;;;;;;;4.32;3.92;;;15.70;73.90;;;;;;5027441;28;20203;-75
2022/03/24 07:48:31;;;;;;;5.60;4.28;;;15.80;73.00;;;;;;5022202;28;20221;-77
2022/03/24 07:51:00;;;;;;;4.75;3.78;;;16.10;73.50;;;;;;5022863;28;20257;-75
2022/03/24 07:53:40;;;;;;;5.43;3.72;;;15.90;72.80;;;;;;5017465;28;20526;-75
2022/03/24 07:56:08;;;;;;;5.50;4.10;;;15.70;73.20;;;;;;5021971;28;20286;-76
2022/03/24 07:58:36;;;;;;;4.57;4.00;;;15.70;73.90;;;;;;5021942;28;20790;-76
2022/03/24 08:01:03;;;;;;;3.90;3.60;;;15.70;74.30;;;;;;5022152;28;20222;-76
2022/03/24 08:03:30;;;;;;;4.85;3.95;;;15.80;74.40;;;;;;5017873;28;20219;-76
2022/03/24 08:05:57;;;;;;;5.50;4.50;;;15.90;74.60;;;;;;5019442;28;20211;-76
2022/03/24 08:08:27;;;;;;;5.10;4.28;;;15.90;74.20;;;;;;5019266;28;20266;-76
2022/03/24 08:10:54;;;;;;;4.35;3.92;;;15.80;74.00;;;;;;5022751;28;20403;-75
2022/03/24 08:13:22;;;;;;;5.07;4.15;;;15.80;73.80;;;;;;5020167;28;20222;-76
2022/03/24 08:15:51;;;;;;;6.20;4.22;;;16.00;73.80;;;;;;5020388;28;20213;-75
2022/03/24 08:18:19;;;;;;;7.20;4.40;;;15.90;72.30;;;;;;5019486;28;20254;-76
2022/03/24 08:20:48;;;;;;;5.07;4.05;;;15.70;72.00;;;;;;5022397;28;20202;-76
2022/03/24 08:23:16;;;;;;;7.20;3.85;;;16.00;72.60;;;;;;5023494;28;20219;-76
2022/03/24 08:25:45;;;;;;;5.00;3.42;;;16.20;71.50;;;;;;5029395;28;20202;-76
2022/03/24 08:28:13;;;;;;;5.40;3.88;;;16.60;72.20;;;;;;5022968;28;20234;-77
2022/03/24 08:30:41;;;;;;;4.40;4.00;;;16.80;70.60;;;;;;5020734;28;20625;-77
2022/03/24 08:33:10;;;;;;;4.75;3.95;;;16.90;70.00;;;;;;5024271;28;20273;-77
2022/03/24 08:35:37;;;;;;;4.13;3.72;;;17.10;70.30;;;;;;5026693;28;20776;-74
2022/03/24 08:38:05;;;;;;;4.78;3.78;;;17.20;69.00;;;;;;5023456;28;20632;-76
2022/03/24 08:40:32;;;;;;;5.38;3.60;;;17.30;69.60;;;;;;5026412;28;20207;-76
2022/03/24 08:43:00;;;;;;;5.30;3.63;;;17.30;68.40;;;;;;5025605;28;20865;-76
2022/03/24 08:45:27;;;;;;;4.47;4.07;;;17.20;68.80;;;;;;5021961;28;20287;-77
2022/03/24 08:47:54;;;;;;;5.43;4.22;;;17.30;68.60;;;;;;5021288;28;20305;-76
2022/03/24 08:50:23;;;;;;;3.80;3.47;;;17.20;69.40;;;;;;5024013;28;20230;-75
2022/03/24 08:52:51;;;;;;;4.00;3.60;;;17.60;69.50;;;;;;5025912;28;20654;-77
2022/03/24 08:55:19;;;;;;;5.60;4.10;;;18.00;68.00;;;;;;5020270;28;20514;-75
2022/03/24 08:57:47;;;;;;;6.03;3.78;;;17.80;67.60;;;;;;5022910;28;20605;-75
2022/03/24 09:00:17;;;;;;;4.22;3.83;;;17.70;68.60;;;;;;5021884;28;20954;-79
2022/03/24 09:02:48;;;;;;;4.50;4.10;;;18.00;68.00;;;;;;5019278;28;20717;-74
2022/03/24 09:05:16;;;;;;;5.25;3.97;;;18.30;67.20;;;;;;5022742;28;20283;-76
2022/03/24 09:07:43;;;;;;;4.78;3.40;;;18.30;67.60;;;;;;5022339;28;20222;-75
2022/03/24 09:10:13;;;;;;;3.65;3.35;;;18.40;68.10;;;;;;5018784;28;20265;-78
2022/03/24 09:12:44;;;;;;;4.05;3.65;;;18.60;67.30;;;;;;5020848;28;20308;-75
2022/03/24 09:15:14;;;;;;;4.13;3.72;;;18.70;66.70;;;;;;5021969;28;20199;-75
2022/03/24 09:17:43;;;;;;;4.70;4.07;;;18.60;66.70;;;;;;5020663;28;20573;-76
2022/03/24 09:20:12;;;;;;;4.13;3.72;;;18.60;66.80;;;;;;5025301;28;20330;-76
2022/03/24 09:22:40;;;;;;;4.68;3.70;;;18.90;68.70;;;;;;5017677;28;20223;-77
2022/03/24 09:25:08;;;;;;;5.00;3.92;;;19.10;66.70;;;;;;5023671;28;20504;-81
2022/03/24 09:27:35;;;;;;;5.50;4.00;;;19.00;67.00;;;;;;5023877;28;20231;-78
2022/03/24 09:30:02;;;;;;;3.70;3.40;;;18.90;66.40;;;;;;5027365;28;20667;-75
2022/03/24 09:32:30;;;;;;;7.35;3.63;;;18.80;67.40;;;;;;5022609;28;20219;-77
2022/03/24 09:34:58;;;;;;;3.70;3.40;;;18.80;66.30;;;;;;5020930;28;20211;-76
2022/03/24 09:37:25;;;;;;;6.68;3.90;;;18.70;66.10;;;;;;5020302;28;20233;-77
2022/03/24 09:39:52;;;;;;;3.75;3.45;;;19.00;66.30;;;;;;5022862;28;20715;-75
2022/03/24 09:42:21;;;;;;;4.47;4.07;;;19.00;64.80;;;;;;5023089;28;21053;-77
2022/03/24 09:44:49;;;;;;;3.95;3.50;;;18.90;64.10;;;;;;5021133;28;20231;-76
2022/03/24 09:47:17;;;;;;;4.40;3.80;;;18.90;64.70;;;;;;5020351;28;20619;-76
2022/03/24 09:49:44;;;;;;;4.82;4.28;;;18.80;64.50;;;;;;5017364;28;20220;-79
2022/03/24 09:52:16;;;;;;;3.97;3.67;;;18.80;65.00;;;;;;5015959;28;20740;-77
2022/03/24 09:54:45;;;;;;;5.00;3.72;;;18.70;64.90;;;;;;5012964;28;20204;-78
2022/03/24 09:57:13;;;;;;;5.10;3.60;;;18.60;64.80;;;;;;5017686;28;20567;-76
2022/03/24 09:59:40;;;;;;;3.53;3.22;;;18.60;64.90;;;;;;5016529;28;20206;-78
2022/03/24 10:02:09;;;;;;;4.03;3.58;;;18.80;64.90;;;;;;5019849;28;20223;-76
2022/03/24 10:04:48;;;;;;;4.70;3.72;;;18.90;64.50;;;;;;5018654;28;20215;-78
2022/03/24 10:07:17;;;;;;;4.80;3.25;;;18.90;62.90;;;;;;5017796;28;20251;-76
2022/03/24 10:09:45;;;;;;;4.55;3.28;;;19.10;64.90;;;;;;5018041;28;20223;-76
2022/03/24 10:12:22;;;;;;;4.43;3.70;;;19.30;62.90;;;;;;5022617;28;20268;-78
2022/03/24 10:15:03;;;;;;;3.45;3.15;;;19.20;62.80;;;;;;5023379;28;20893;-76
2022/03/24 10:17:31;;;;;;;3.47;3.15;;;19.40;62.40;;;;;;5016737;28;20216;-74
2022/03/24 10:20:00;;;;;;;4.88;3.38;;;19.40;62.80;;;;;;5018308;28;20624;-75
2022/03/24 10:22:29;;;;;;;4.35;3.38;;;19.40;63.00;;;;;;5014264;28;20224;-75
2022/03/24 10:24:56;;;;;;;5.38;2.92;;;19.50;62.80;;;;;;5015132;28;20208;-76
2022/03/24 10:27:25;;;;;;;3.88;3.42;;;19.90;63.30;;;;;;5014398;28;20212;-76
2022/03/24 10:29:57;;;;;;;4.03;3.22;;;20.30;63.10;;;;;;5015507;28;20245;-76
2022/03/24 10:32:29;;;;;;;4.00;3.38;;;20.70;62.40;;;;;;5018581;28;20239;-76
2022/03/24 10:34:58;;;;;;;4.07;3.45;;;20.90;61.20;;;;;;5020320;28;20200;-75
2022/03/24 10:37:28;;;;;;;6.30;3.45;;;20.60;60.00;;;;;;5016525;28;20305;-75
2022/03/24 10:39:58;;;;;;;3.15;2.85;;;20.50;60.70;;;;;;5018419;28;20250;-76
2022/03/24 10:42:27;;;;;;;3.08;2.70;;;20.30;60.10;;;;;;5018717;28;20737;-75
2022/03/24 10:45:12;;;;;;;3.72;3.42;;;20.20;59.60;;;;;;5016179;28;20235;-76
2022/03/24 10:47:43;;;;;;;3.67;2.83;;;19.90;58.00;;;;;;5015217;28;20242;-76
2022/03/24 10:50:32;;;;;;;3.88;3.05;;;19.70;59.40;;;;;;5022915;28;20238;-76
2022/03/24 10:53:03;;;;;;;3.47;3.17;;;19.80;59.20;;;;;;5015610;28;20223;-75
2022/03/24 10:55:41;;;;;;;5.22;3.05;;;20.00;61.10;;;;;;5015903;28;20199;-75
2022/03/24 10:58:11;;;;;;;4.22;3.40;;;20.30;59.60;;;;;;5018922;28;21214;-75
2022/03/24 11:00:40;;;;;;;3.22;2.70;;;20.30;59.80;;;;;;5015508;28;20207;-76
2022/03/24 11:03:08;;;;;;;3.95;3.63;;;20.30;59.80;;;;;;5016307;28;20306;-77
2022/03/24 11:05:36;;;;;;;3.22;2.97;;;20.40;60.70;;;;;;5016998;28;20758;-76
2022/03/24 11:08:08;;;;;;;3.28;2.97;;;20.60;61.80;;;;;;5032752;28;20227;-76
2022/03/24 11:10:44;;;;;;;3.83;3.40;;;20.70;60.20;;;;;;5014926;28;20700;-76
2022/03/24 11:13:14;;;;;;;3.75;2.92;;;20.60;60.00;;;;;;5019343;28;20253;-75
2022/03/24 11:15:42;;;;;;;3.58;2.97;;;20.50;60.70;;;;;;5014443;28;20201;-76
2022/03/24 11:18:10;;;;;;;3.45;3.15;;;20.60;60.70;;;;;;5020902;28;20221;-76
2022/03/24 11:20:38;;;;;;;4.25;3.30;;;20.80;60.40;;;;;;5018829;28;20871;-75
2022/03/24 11:23:18;;;;;;;3.78;3.35;;;20.80;59.80;;;;;;5019012;28;20231;-75
2022/03/24 11:25:45;;;;;;;3.40;3.10;;;20.70;59.90;;;;;;5018768;28;20215;-75
2022/03/24 11:28:14;;;;;;;4.55;3.53;;;20.80;60.00;;;;;;5016089;28;20601;-75
2022/03/24 11:30:42;;;;;;;2.90;2.70;;;21.10;60.50;;;;;;5015890;28;20328;-75
2022/03/24 11:33:09;;;;;;;3.38;3.08;;;21.10;59.80;;;;;;5102875;22;20603;-74
2022/03/24 11:35:37;;;;;;;2.97;2.75;;;21.20;58.40;;;;;;5071320;28;20197;-74
2022/03/24 11:38:06;;;;;;;3.42;2.97;;;21.30;58.80;;;;;;5072225;28;20226;-74
2022/03/24 11:40:35;;;;;;;3.63;2.78;;;21.40;59.80;;;;;;5072771;28;20198;-74
2022/03/24 11:43:08;;;;;;;3.53;2.65;;;21.40;59.00;;;;;;5071450;28;20650;-72
2022/03/24 11:45:40;;;;;;;2.80;2.60;;;21.40;58.90;;;;;;5065512;28;20276;-75
2022/03/24 11:48:09;;;;;;;3.40;3.10;;;21.60;59.30;;;;;;5067607;28;20730;-75
2022/03/24 11:50:44;;;;;;;6.38;2.97;;;21.70;59.60;;;;;;5060504;28;20222;-74
2022/03/24 11:53:21;;;;;;;5.05;3.28;;;21.70;58.10;;;;;;5066003;28;20225;-77
2022/03/24 11:56:17;;;;;;;3.10;2.80;;;21.60;58.00;;;;;;5059432;28;20261;-76
2022/03/24 11:59:07;;;;;;;4.53;4.13;;;21.90;58.50;;;;;;5061540;28;20839;-76
2022/03/24 12:01:37;;;;;;;3.83;3.15;;;21.80;58.30;;;;;;5060304;28;20198;-76
2022/03/24 12:04:08;;;;;;;3.28;2.97;;;21.70;57.80;;;;;;5068353;28;20313;-76
2022/03/24 12:06:55;;;;;;;3.03;2.72;;;21.60;58.20;;;;;;5064768;28;20237;-77
2022/03/24 12:09:28;;;;;;;3.60;3.30;;;21.70;57.60;;;;;;5058831;28;20641;-76
2022/03/24 12:12:10;;;;;;;3.10;2.90;;;22.00;58.80;;;;;;5070589;28;20648;-77
2022/03/24 12:14:44;;;;;;;3.42;2.97;;;22.20;57.40;;;;;;5072902;28;20569;-78
2022/03/24 12:17:22;;;;;;;2.95;2.75;;;22.20;58.10;;;;;;5067894;28;20198;-76
2022/03/24 12:19:51;;;;;;;4.22;2.80;;;22.40;58.00;;;;;;5064674;28;20253;-77
2022/03/24 12:22:43;;;;;;;3.35;2.80;;;22.50;57.30;;;;;;5065337;28;20214;-76
2022/03/24 12:25:35;;;;;;;3.70;2.70;;;22.50;57.30;;;;;;5056238;28;20607;-75
2022/03/24 12:28:16;;;;;;;2.88;2.67;;;22.40;56.60;;;;;;5065134;28;20187;-73
2022/03/24 12:30:55;;;;;;;3.90;3.13;;;22.40;58.00;;;;;;5058957;28;20704;-76
2022/03/24 12:33:39;;;;;;;4.25;3.03;;;22.60;58.60;;;;;;5072146;28;20292;-78
2022/03/24 12:36:07;;;;;;;3.65;3.20;;;22.60;58.20;;;;;;5067210;28;20186;-73
2022/03/24 12:38:49;;;;;;;4.68;3.13;;;22.40;57.60;;;;;;5080797;28;20239;-79
2022/03/24 12:41:25;;;;;;;3.42;2.83;;;22.40;58.40;;;;;;5080192;28;20194;-77
2022/03/24 12:43:57;;;;;;;2.65;2.45;;;22.30;58.40;;;;;;5069908;28;20633;-77
2022/03/24 12:46:28;;;;;;;3.85;3.08;;;22.60;57.50;;;;;;5064935;28;20575;-77
2022/03/24 12:48:58;;;;;;;2.65;2.45;;;22.70;56.00;;;;;;5064003;28;20217;-77
2022/03/24 12:51:26;;;;;;;3.85;2.63;;;22.70;56.70;;;;;;5058839;28;20558;-77
2022/03/24 12:53:57;;;;;;;3.58;2.95;;;22.80;56.90;;;;;;5068798;28;20222;-78
2022/03/24 12:56:28;;;;;;;3.08;2.78;;;22.80;56.60;;;;;;5073479;28;20292;-77
2022/03/24 12:58:57;;;;;;;2.63;2.42;;;22.70;56.50;;;;;;5073754;28;20226;-77
2022/03/24 13:01:25;;;;;;;3.88;2.63;;;22.90;57.60;;;;;;5073699;28;20316;-78
2022/03/24 13:03:57;;;;;;;5.05;2.70;;;23.20;56.40;;;;;;5070587;28;20222;-76